Time;durP1;ratioP1;P1;durP2;ratioP2;P2;SDS_P1;SDS_P2;PMS_P1;PMS_P2;Temp;Humidity;BMP_temperature;BMP_pressure;BME280_temperature;BME280_humidity;BME280_pressure;Samples;Min_cycle;Max_cycle;Signal;HPM_P1;HPM_P2
2021/08/01 00:00:31;;;;;;;1.38;0.90;;;26.10;53.10;;;;;;5025671;28;20057;-64
2021/08/01 00:02:57;;;;;;;1.25;0.85;;;26.10;53.10;;;;;;5010510;28;20029;-64
2021/08/01 00:05:23;;;;;;;1.55;0.80;;;26.10;53.10;;;;;;5023203;28;20172;-62
2021/08/01 00:07:48;;;;;;;1.08;0.80;;;26.10;53.10;;;;;;5009047;28;20033;-60
2021/08/01 00:10:14;;;;;;;1.17;0.77;;;26.10;53.10;;;;;;5028461;28;20040;-61
2021/08/01 00:12:42;;;;;;;1.83;0.82;;;26.10;53.10;;;;;;5019219;28;20028;-61
2021/08/01 00:15:09;;;;;;;1.15;0.88;;;26.10;53.10;;;;;;5024946;28;20025;-62
2021/08/01 00:17:35;;;;;;;1.00;0.70;;;26.10;53.50;;;;;;5019570;28;20033;-61
2021/08/01 00:20:01;;;;;;;1.25;0.90;;;26.10;53.10;;;;;;5009433;28;20042;-60
2021/08/01 00:22:26;;;;;;;2.38;0.90;;;26.10;53.00;;;;;;5013838;28;20111;-62
2021/08/01 00:24:52;;;;;;;1.35;0.90;;;26.10;53.10;;;;;;5019817;28;20112;-63
2021/08/01 00:27:17;;;;;;;1.67;0.70;;;26.10;53.10;;;;;;5015657;28;20026;-61
2021/08/01 00:29:43;;;;;;;1.45;0.90;;;26.10;53.10;;;;;;5006959;28;20033;-60
2021/08/01 00:32:08;;;;;;;2.60;0.80;;;26.10;53.10;;;;;;5023334;28;20033;-61
2021/08/01 00:34:34;;;;;;;1.27;0.80;;;26.10;53.10;;;;;;5024872;28;20083;-62
2021/08/01 00:37:00;;;;;;;0.90;0.70;;;26.00;53.00;;;;;;5024467;28;20030;-63
2021/08/01 00:39:26;;;;;;;1.30;0.95;;;26.10;53.10;;;;;;5027886;28;20697;-61
2021/08/01 00:41:51;;;;;;;1.45;0.80;;;26.10;53.10;;;;;;5024386;28;20600;-62
2021/08/01 00:44:17;;;;;;;1.10;0.80;;;26.10;53.60;;;;;;5019466;28;20038;-61
2021/08/01 00:46:44;;;;;;;1.48;0.90;;;26.10;53.10;;;;;;5019873;28;20029;-61
2021/08/01 00:49:10;;;;;;;1.00;0.80;;;26.00;53.00;;;;;;5022488;28;20503;-61
2021/08/01 00:51:36;;;;;;;1.17;0.90;;;26.00;53.00;;;;;;5024011;28;20385;-60
2021/08/01 00:54:03;;;;;;;1.40;0.90;;;26.00;53.00;;;;;;5009279;28;20679;-63
2021/08/01 00:56:32;;;;;;;1.33;0.77;;;26.00;53.00;;;;;;5023112;28;20033;-65
2021/08/01 00:58:58;;;;;;;1.35;1.00;;;26.00;53.00;;;;;;5019510;28;20034;-61
2021/08/01 01:01:47;;;;;;;1.20;0.90;;;26.00;53.00;;;;;;5027327;28;20040;-62
2021/08/01 01:04:24;;;;;;;1.88;1.05;;;26.00;53.00;;;;;;5009440;28;20539;-61
2021/08/01 01:06:53;;;;;;;1.10;0.80;;;26.00;53.00;;;;;;5024218;28;20417;-63
2021/08/01 01:09:32;;;;;;;1.65;1.00;;;26.00;53.00;;;;;;5026889;28;20160;-61
2021/08/01 01:12:02;;;;;;;1.23;0.80;;;26.00;53.00;;;;;;5026707;28;20036;-62
2021/08/01 01:14:29;;;;;;;2.00;0.90;;;26.00;53.00;;;;;;5009302;28;20033;-62
2021/08/01 01:17:00;;;;;;;1.35;0.85;;;26.00;53.00;;;;;;5015681;28;20437;-62
2021/08/01 01:19:46;;;;;;;1.80;1.00;;;26.00;53.00;;;;;;5024344;28;20025;-61
2021/08/01 01:22:38;;;;;;;1.05;0.80;;;26.00;53.00;;;;;;5027840;28;20022;-61
2021/08/01 01:25:16;;;;;;;1.67;0.90;;;26.00;53.00;;;;;;5025091;28;20068;-61
2021/08/01 01:27:56;;;;;;;1.42;0.80;;;26.00;53.00;;;;;;5024102;28;20558;-62
2021/08/01 01:30:23;;;;;;;0.90;0.80;;;26.00;53.00;;;;;;5011069;28;20033;-62
2021/08/01 01:33:01;;;;;;;1.02;0.80;;;26.00;53.00;;;;;;5027258;28;20100;-60
2021/08/01 01:35:31;;;;;;;1.38;0.90;;;26.00;53.00;;;;;;5013667;28;20030;-63
2021/08/01 01:37:58;;;;;;;0.95;0.80;;;26.00;53.00;;;;;;5025616;28;20037;-61
2021/08/01 01:40:25;;;;;;;1.23;0.80;;;25.90;53.00;;;;;;5027749;28;20029;-60
2021/08/01 01:42:54;;;;;;;0.95;0.75;;;26.00;53.10;;;;;;5023239;28;20084;-64
2021/08/01 01:45:20;;;;;;;1.13;0.77;;;26.00;53.10;;;;;;5013533;28;20034;-61
2021/08/01 01:47:47;;;;;;;1.40;0.90;;;25.90;53.00;;;;;;5019782;28;20040;-63
2021/08/01 01:50:16;;;;;;;1.40;0.90;;;25.90;53.00;;;;;;5018414;28;20526;-61
2021/08/01 01:52:47;;;;;;;1.63;0.82;;;26.00;53.00;;;;;;5020381;28;20022;-63
2021/08/01 01:55:15;;;;;;;1.15;0.85;;;25.90;53.00;;;;;;5022080;28;20688;-64
2021/08/01 01:57:42;;;;;;;1.25;0.80;;;25.90;53.00;;;;;;5018411;28;20496;-62
2021/08/01 02:00:08;;;;;;;1.65;0.93;;;25.90;53.00;;;;;;5019606;28;20119;-60
2021/08/01 02:02:36;;;;;;;1.40;0.70;;;25.90;53.00;;;;;;5024480;28;20033;-62
2021/08/01 02:05:02;;;;;;;1.05;0.75;;;25.90;53.00;;;;;;5027618;28;20135;-64
2021/08/01 02:07:32;;;;;;;1.90;1.05;;;25.90;53.00;;;;;;5026016;28;20028;-62
2021/08/01 02:10:09;;;;;;;1.08;0.70;;;25.90;53.00;;;;;;5027070;28;20041;-60
2021/08/01 02:12:41;;;;;;;1.30;0.90;;;25.90;53.00;;;;;;5017046;28;20299;-61
2021/08/01 02:15:15;;;;;;;1.95;0.80;;;25.90;53.00;;;;;;5029142;28;20413;-63
2021/08/01 02:18:03;;;;;;;1.20;0.90;;;25.90;53.00;;;;;;5024039;28;20030;-63
2021/08/01 02:20:35;;;;;;;1.05;0.77;;;25.90;53.10;;;;;;5027315;28;20030;-60
2021/08/01 02:23:03;;;;;;;1.00;0.80;;;25.90;53.10;;;;;;5012357;28;20037;-61
2021/08/01 02:25:29;;;;;;;1.40;0.80;;;25.90;53.00;;;;;;5011267;28;20042;-61
2021/08/01 02:27:56;;;;;;;1.20;0.80;;;25.80;53.00;;;;;;5016076;28;20120;-60
2021/08/01 02:30:23;;;;;;;1.27;0.80;;;25.90;53.00;;;;;;5026499;28;20042;-66
2021/08/01 02:32:50;;;;;;;0.98;0.80;;;25.90;53.00;;;;;;5027653;28;20017;-61
2021/08/01 02:35:17;;;;;;;1.30;0.90;;;25.90;53.10;;;;;;5013601;28;20091;-60
2021/08/01 02:37:44;;;;;;;1.10;0.80;;;25.80;52.90;;;;;;5028899;28;20054;-63
2021/08/01 02:40:12;;;;;;;1.05;0.80;;;25.80;53.00;;;;;;5027202;28;20029;-61
2021/08/01 02:42:41;;;;;;;0.95;0.80;;;25.80;53.00;;;;;;5018528;28;20140;-61
2021/08/01 02:45:07;;;;;;;1.67;0.80;;;25.80;53.00;;;;;;5030270;28;20498;-63
2021/08/01 02:47:35;;;;;;;0.80;0.70;;;25.80;53.00;;;;;;5027380;28;20544;-62
2021/08/01 02:50:02;;;;;;;1.30;0.80;;;25.80;53.00;;;;;;5025752;28;20479;-63
2021/08/01 02:52:41;;;;;;;1.73;0.75;;;25.80;53.00;;;;;;5011015;28;20030;-61
2021/08/01 02:55:07;;;;;;;;;;;25.80;53.00;;;;;;5011123;28;20116;-62
2021/08/01 02:57:34;;;;;;;1.10;0.70;;;25.80;53.00;;;;;;5026260;28;19959;-62
2021/08/01 03:00:02;;;;;;;1.42;1.00;;;25.80;53.00;;;;;;5029166;28;20035;-60
2021/08/01 03:02:29;;;;;;;1.25;0.90;;;25.80;53.00;;;;;;5021537;28;20087;-61
2021/08/01 03:04:55;;;;;;;1.05;0.73;;;25.80;53.00;;;;;;5029789;28;20128;-61
2021/08/01 03:07:21;;;;;;;1.55;0.90;;;25.80;53.10;;;;;;5029792;28;20079;-64
2021/08/01 03:09:48;;;;;;;1.45;0.80;;;25.80;53.10;;;;;;5027594;28;20025;-63
2021/08/01 03:12:15;;;;;;;1.20;0.93;;;25.80;53.00;;;;;;5021413;28;20837;-61
2021/08/01 03:14:41;;;;;;;1.00;0.80;;;25.80;53.10;;;;;;5009765;28;20334;-62
2021/08/01 03:17:07;;;;;;;1.23;0.90;;;25.80;53.10;;;;;;5009193;28;20045;-62
2021/08/01 03:19:39;;;;;;;1.20;0.82;;;25.70;53.50;;;;;;5020382;28;20106;-61
2021/08/01 03:22:05;;;;;;;1.25;0.80;;;25.70;53.00;;;;;;5025150;28;20538;-66
2021/08/01 03:24:31;;;;;;;1.02;0.77;;;25.80;53.10;;;;;;5010152;28;20041;-63
2021/08/01 03:26:56;;;;;;;1.63;0.90;;;25.70;53.00;;;;;;5009238;28;20052;-63
2021/08/01 03:29:22;;;;;;;0.82;0.70;;;25.70;53.10;;;;;;5012721;28;20087;-63
2021/08/01 03:31:48;;;;;;;0.80;0.70;;;25.70;53.00;;;;;;5026272;28;20029;-65
2021/08/01 03:34:14;;;;;;;1.02;0.90;;;25.70;53.10;;;;;;5013221;28;20480;-62
2021/08/01 03:36:40;;;;;;;1.42;0.88;;;25.70;53.10;;;;;;5022187;28;20183;-62
2021/08/01 03:39:06;;;;;;;1.10;0.82;;;25.70;53.10;;;;;;5018866;28;20022;-65
2021/08/01 03:41:32;;;;;;;0.88;0.73;;;25.70;53.10;;;;;;5023434;28;20057;-62
2021/08/01 03:43:58;;;;;;;1.17;0.70;;;25.70;53.10;;;;;;5015904;28;20092;-63
2021/08/01 03:46:23;;;;;;;1.27;0.80;;;25.70;53.10;;;;;;5025974;28;20045;-61
2021/08/01 03:48:49;;;;;;;1.13;0.90;;;25.70;53.10;;;;;;5029295;28;20032;-64
2021/08/01 03:51:15;;;;;;;1.23;0.90;;;25.70;53.10;;;;;;5019363;28;20422;-61
2021/08/01 03:53:40;;;;;;;1.15;0.85;;;25.70;53.10;;;;;;5018628;28;20018;-61
2021/08/01 03:56:06;;;;;;;1.08;0.70;;;25.70;53.10;;;;;;5014981;28;20647;-63
2021/08/01 03:58:32;;;;;;;1.23;0.80;;;25.70;53.20;;;;;;5019238;28;20037;-64
2021/08/01 04:00:58;;;;;;;1.52;0.90;;;25.70;53.10;;;;;;5021110;28;20176;-62
2021/08/01 04:03:23;;;;;;;1.00;0.70;;;25.70;53.20;;;;;;5026299;28;20029;-62
2021/08/01 04:05:49;;;;;;;1.27;0.82;;;25.70;53.20;;;;;;5026413;28;20029;-63
2021/08/01 04:08:15;;;;;;;1.20;0.85;;;25.70;53.10;;;;;;5026822;28;20072;-61
2021/08/01 04:10:41;;;;;;;0.73;0.73;;;25.70;53.20;;;;;;5028336;28;20118;-62
2021/08/01 04:13:06;;;;;;;0.75;0.70;;;25.70;53.20;;;;;;5025010;28;20128;-64
2021/08/01 04:15:32;;;;;;;0.80;0.70;;;25.70;53.20;;;;;;5012466;28;20030;-62
2021/08/01 04:18:01;;;;;;;0.90;0.80;;;25.60;53.10;;;;;;5017459;28;20026;-61
2021/08/01 04:20:27;;;;;;;1.17;0.80;;;25.70;53.10;;;;;;5028775;28;20029;-64
2021/08/01 04:22:53;;;;;;;1.25;0.80;;;25.60;53.10;;;;;;5024230;28;20044;-63
2021/08/01 04:25:20;;;;;;;1.50;0.90;;;25.60;53.10;;;;;;5009304;28;20042;-61
2021/08/01 04:27:46;;;;;;;0.70;0.70;;;25.60;53.10;;;;;;5010649;28;20101;-62
2021/08/01 04:30:11;;;;;;;0.98;0.77;;;25.70;53.20;;;;;;5019390;28;20120;-63
2021/08/01 04:32:37;;;;;;;1.63;0.98;;;25.60;53.10;;;;;;5008105;28;20113;-63
2021/08/01 04:35:04;;;;;;;1.27;0.90;;;25.60;53.10;;;;;;5026126;28;20048;-65
2021/08/01 04:37:29;;;;;;;1.00;0.95;;;25.60;53.10;;;;;;5027071;28;20087;-62
2021/08/01 04:39:55;;;;;;;1.25;0.70;;;25.60;53.10;;;;;;5028591;28;20042;-63
2021/08/01 04:42:21;;;;;;;1.35;0.85;;;25.60;53.10;;;;;;5021699;28;20041;-62
2021/08/01 04:44:46;;;;;;;1.25;0.70;;;25.60;53.10;;;;;;5026754;28;20041;-67
2021/08/01 04:47:14;;;;;;;1.10;0.75;;;25.60;53.10;;;;;;5022983;28;20026;-63
2021/08/01 04:49:41;;;;;;;1.27;0.80;;;25.60;53.10;;;;;;5022870;28;20022;-61
2021/08/01 04:52:07;;;;;;;1.10;0.90;;;25.60;53.20;;;;;;5011897;28;20485;-61
2021/08/01 04:54:36;;;;;;;0.80;0.70;;;25.60;53.20;;;;;;5025361;28;20094;-62
2021/08/01 04:57:05;;;;;;;1.08;0.80;;;25.60;53.10;;;;;;5025382;28;20044;-64
2021/08/01 04:59:34;;;;;;;0.70;0.70;;;25.60;53.20;;;;;;5017561;28;20130;-62
2021/08/01 05:01:59;;;;;;;;;;;25.60;53.70;;;;;;5011075;28;20073;-62
2021/08/01 05:04:25;;;;;;;0.88;0.80;;;25.60;53.20;;;;;;5026410;28;20299;-61
2021/08/01 05:06:50;;;;;;;1.08;0.80;;;25.60;53.20;;;;;;5016163;28;20037;-64
2021/08/01 05:09:16;;;;;;;1.02;0.77;;;25.60;53.20;;;;;;5020554;28;20108;-62
2021/08/01 05:11:42;;;;;;;1.58;0.90;;;25.60;53.20;;;;;;5022086;28;20025;-61
2021/08/01 05:14:08;;;;;;;1.25;0.90;;;25.50;53.10;;;;;;5017839;28;20083;-64
2021/08/01 05:16:33;;;;;;;1.27;0.77;;;25.60;53.20;;;;;;5023518;28;20076;-66
2021/08/01 05:18:59;;;;;;;1.30;0.80;;;25.50;53.10;;;;;;5025148;28;20037;-65
2021/08/01 05:21:24;;;;;;;1.33;0.80;;;25.50;53.10;;;;;;5009859;28;20065;-60
2021/08/01 05:23:50;;;;;;;1.27;0.85;;;25.50;53.20;;;;;;5022265;28;20499;-62
2021/08/01 05:26:17;;;;;;;1.70;0.90;;;25.50;53.20;;;;;;5024265;28;20457;-62
2021/08/01 05:28:42;;;;;;;0.93;0.73;;;25.50;53.10;;;;;;5016894;28;20037;-64
2021/08/01 05:31:08;;;;;;;1.10;0.80;;;25.50;53.20;;;;;;5023982;28;20042;-64
2021/08/01 05:33:33;;;;;;;1.42;0.80;;;25.50;53.20;;;;;;5025208;28;20361;-66
2021/08/01 05:36:05;;;;;;;0.98;0.80;;;25.50;53.20;;;;;;5020695;28;20100;-64
2021/08/01 05:38:31;;;;;;;0.80;0.70;;;25.50;53.20;;;;;;5024149;28;20532;-63
2021/08/01 05:40:58;;;;;;;1.13;0.70;;;25.50;53.20;;;;;;5024315;28;20029;-65
2021/08/01 05:43:23;;;;;;;1.00;0.80;;;25.50;53.20;;;;;;5022875;28;20021;-62
2021/08/01 05:45:49;;;;;;;1.13;0.90;;;25.50;53.20;;;;;;5021894;28;20028;-63
2021/08/01 05:48:14;;;;;;;1.27;1.00;;;25.50;53.20;;;;;;5023993;28;20033;-65
2021/08/01 05:50:40;;;;;;;1.38;0.95;;;25.50;53.20;;;;;;5024695;28;20069;-63
2021/08/01 05:53:06;;;;;;;1.67;1.00;;;25.50;53.20;;;;;;5027123;28;20392;-66
2021/08/01 05:55:31;;;;;;;1.00;0.80;;;25.50;53.20;;;;;;5026082;28;20564;-65
2021/08/01 05:57:57;;;;;;;1.40;0.98;;;25.50;53.20;;;;;;5019224;28;20040;-63
2021/08/01 06:00:23;;;;;;;1.13;0.80;;;25.50;53.30;;;;;;5019485;28;20041;-61
2021/08/01 06:02:48;;;;;;;0.80;0.80;;;25.40;53.20;;;;;;5017870;28;20034;-64
2021/08/01 06:05:14;;;;;;;1.13;0.77;;;25.50;53.30;;;;;;5025980;28;20484;-64
2021/08/01 06:07:39;;;;;;;1.20;0.75;;;25.50;53.30;;;;;;5016315;28;20025;-65
2021/08/01 06:10:05;;;;;;;2.53;0.90;;;25.50;53.30;;;;;;5016108;28;20189;-64
2021/08/01 06:12:31;;;;;;;1.13;0.80;;;25.40;53.20;;;;;;5026231;28;20056;-65
2021/08/01 06:14:57;;;;;;;1.13;0.82;;;25.40;53.20;;;;;;5023033;28;20025;-61
2021/08/01 06:17:22;;;;;;;0.90;0.80;;;25.40;53.20;;;;;;5027636;28;20136;-64
2021/08/01 06:19:55;;;;;;;1.33;0.70;;;25.40;53.20;;;;;;5027257;28;20114;-65
2021/08/01 06:22:22;;;;;;;1.20;0.90;;;25.40;53.20;;;;;;5015402;28;20842;-62
2021/08/01 06:24:47;;;;;;;1.13;0.80;;;25.40;53.20;;;;;;5024474;28;20091;-64
2021/08/01 06:27:13;;;;;;;1.17;0.75;;;25.40;53.20;;;;;;5021882;28;20038;-64
2021/08/01 06:29:39;;;;;;;1.58;0.90;;;25.40;53.20;;;;;;5027170;28;20097;-63
2021/08/01 06:32:04;;;;;;;1.38;0.90;;;25.40;53.20;;;;;;5023655;28;20127;-61
2021/08/01 06:34:30;;;;;;;0.90;0.80;;;25.40;53.20;;;;;;5023262;28;20033;-63
2021/08/01 06:36:55;;;;;;;1.00;0.75;;;25.40;53.20;;;;;;5024501;28;20036;-63
2021/08/01 06:39:21;;;;;;;1.42;0.95;;;25.40;53.20;;;;;;5023548;28;20037;-61
2021/08/01 06:41:47;;;;;;;1.17;0.88;;;25.40;53.30;;;;;;5023069;28;20064;-67
2021/08/01 06:44:13;;;;;;;0.98;0.75;;;25.40;53.20;;;;;;5025097;28;20030;-65
2021/08/01 06:46:38;;;;;;;1.42;0.82;;;25.40;53.20;;;;;;5019778;28;20036;-63
2021/08/01 06:49:04;;;;;;;1.17;0.80;;;25.40;53.20;;;;;;5025538;28;20036;-61
2021/08/01 06:51:29;;;;;;;1.10;0.80;;;25.40;53.20;;;;;;5020491;28;20101;-64
2021/08/01 06:53:55;;;;;;;1.02;0.80;;;25.40;53.20;;;;;;5023044;28;20017;-61
2021/08/01 06:56:21;;;;;;;1.00;0.80;;;25.40;53.20;;;;;;5026474;28;20041;-61
2021/08/01 06:58:47;;;;;;;1.02;0.90;;;25.40;53.20;;;;;;5024094;28;20037;-63
2021/08/01 07:01:12;;;;;;;0.98;0.88;;;25.40;53.20;;;;;;5018722;28;20041;-64
2021/08/01 07:03:39;;;;;;;1.35;0.90;;;25.40;53.20;;;;;;5028807;28;20022;-62
2021/08/01 07:06:04;;;;;;;1.08;0.80;;;25.40;53.20;;;;;;5028669;28;20030;-65
2021/08/01 07:08:30;;;;;;;0.80;0.80;;;25.40;53.20;;;;;;5027280;28;20039;-63
2021/08/01 07:10:56;;;;;;;2.20;0.80;;;25.40;53.20;;;;;;5023646;28;20038;-62
2021/08/01 07:13:22;;;;;;;0.93;0.80;;;25.40;53.20;;;;;;5026629;28;20040;-62
2021/08/01 07:15:48;;;;;;;0.95;0.80;;;25.40;53.20;;;;;;5026995;28;20045;-64
2021/08/01 07:18:14;;;;;;;1.85;0.95;;;25.40;53.20;;;;;;5026407;28;20037;-63
2021/08/01 07:20:40;;;;;;;1.55;0.90;;;25.40;53.20;;;;;;5021875;28;20110;-61
2021/08/01 07:23:09;;;;;;;1.23;0.82;;;25.40;53.20;;;;;;5017983;28;20358;-65
2021/08/01 07:25:35;;;;;;;1.00;0.82;;;25.30;53.10;;;;;;5012656;28;20115;-63
2021/08/01 07:28:01;;;;;;;1.00;0.77;;;25.40;53.20;;;;;;5020967;28;20026;-65
2021/08/01 07:30:27;;;;;;;0.70;0.70;;;25.30;53.10;;;;;;5025124;28;20033;-61
2021/08/01 07:32:52;;;;;;;1.13;0.90;;;25.40;53.20;;;;;;5018076;28;20037;-63
2021/08/01 07:35:18;;;;;;;1.00;0.80;;;25.30;53.10;;;;;;5023499;28;20103;-63
2021/08/01 07:37:44;;;;;;;1.63;0.90;;;25.40;53.20;;;;;;5025582;28;20045;-64
2021/08/01 07:40:10;;;;;;;1.20;0.90;;;25.40;53.30;;;;;;5025355;28;20421;-60
2021/08/01 07:42:35;;;;;;;1.30;1.00;;;25.40;53.20;;;;;;5019705;28;20091;-64
2021/08/01 07:45:03;;;;;;;1.02;0.82;;;25.40;53.30;;;;;;5025737;28;20053;-62
2021/08/01 07:47:30;;;;;;;1.48;0.82;;;25.40;53.20;;;;;;5022287;28;20026;-65
2021/08/01 07:49:56;;;;;;;1.25;0.77;;;25.30;53.20;;;;;;5026000;28;20022;-61
2021/08/01 07:52:22;;;;;;;0.73;0.68;;;25.40;53.30;;;;;;5018198;28;20028;-63
2021/08/01 07:54:48;;;;;;;0.80;0.70;;;25.40;53.30;;;;;;5019919;28;20027;-64
2021/08/01 07:57:24;;;;;;;1.02;0.80;;;25.30;53.20;;;;;;5013025;28;20041;-63
2021/08/01 07:59:50;;;;;;;1.20;0.90;;;25.30;53.20;;;;;;5021897;28;20025;-62
2021/08/01 08:02:15;;;;;;;1.00;0.77;;;25.30;53.20;;;;;;5010527;28;20480;-66
2021/08/01 08:04:41;;;;;;;1.00;0.80;;;25.30;53.20;;;;;;5015844;28;20087;-63
2021/08/01 08:07:06;;;;;;;1.08;0.82;;;25.30;53.20;;;;;;5020933;28;20556;-61
2021/08/01 08:09:32;;;;;;;1.00;0.80;;;25.30;53.20;;;;;;5023705;28;20072;-61
2021/08/01 08:11:57;;;;;;;0.93;0.77;;;25.30;53.20;;;;;;5022212;28;20041;-62
2021/08/01 08:14:23;;;;;;;1.00;0.88;;;25.30;53.20;;;;;;5019795;28;20108;-65
2021/08/01 08:16:49;;;;;;;0.98;0.80;;;25.30;53.20;;;;;;5025208;28;20044;-63
2021/08/01 08:19:14;;;;;;;0.95;0.80;;;25.30;53.20;;;;;;5026231;28;20038;-61
2021/08/01 08:21:40;;;;;;;1.08;0.85;;;25.30;53.20;;;;;;5026246;28;20483;-62
2021/08/01 08:24:05;;;;;;;1.15;0.90;;;25.30;53.20;;;;;;5024474;28;20045;-65
2021/08/01 08:26:31;;;;;;;0.98;0.80;;;25.30;53.30;;;;;;5025220;28;20492;-64
2021/08/01 08:28:57;;;;;;;1.10;0.82;;;25.30;53.30;;;;;;5022653;28;20513;-65
2021/08/01 08:31:23;;;;;;;0.70;0.70;;;25.30;53.30;;;;;;5025089;28;20527;-63
2021/08/01 08:33:48;;;;;;;1.05;0.80;;;25.30;53.30;;;;;;5017373;28;20113;-63
2021/08/01 08:36:14;;;;;;;1.20;0.80;;;25.30;53.30;;;;;;5020765;28;20552;-63
2021/08/01 08:38:40;;;;;;;1.13;0.80;;;25.30;53.30;;;;;;5027745;28;20041;-63
2021/08/01 08:41:11;;;;;;;1.15;0.85;;;25.30;53.30;;;;;;5025271;28;20036;-63
2021/08/01 08:43:36;;;;;;;1.08;0.80;;;25.30;53.30;;;;;;5024903;28;20423;-62
2021/08/01 08:46:03;;;;;;;1.33;0.90;;;25.30;53.30;;;;;;5026263;28;20033;-61
2021/08/01 08:48:30;;;;;;;0.90;0.80;;;25.30;53.30;;;;;;5020414;28;20050;-62
2021/08/01 08:50:56;;;;;;;0.93;0.80;;;25.30;53.30;;;;;;5018807;28;20105;-64
2021/08/01 08:53:25;;;;;;;1.00;0.70;;;25.30;53.30;;;;;;5007894;28;20104;-62
2021/08/01 08:55:53;;;;;;;0.85;0.70;;;25.30;53.30;;;;;;5018341;28;20456;-62
2021/08/01 08:58:20;;;;;;;0.88;0.80;;;25.30;53.30;;;;;;5017318;28;20100;-65
2021/08/01 09:00:47;;;;;;;1.13;0.80;;;25.30;53.30;;;;;;5011545;28;20038;-63
2021/08/01 09:03:12;;;;;;;2.10;0.80;;;25.30;53.30;;;;;;5008324;28;20416;-64
2021/08/01 09:05:38;;;;;;;0.88;0.80;;;25.30;53.30;;;;;;5020465;28;20038;-62
2021/08/01 09:08:04;;;;;;;1.20;0.90;;;25.30;53.30;;;;;;5021598;28;20468;-62
2021/08/01 09:10:30;;;;;;;1.10;0.70;;;25.30;53.30;;;;;;5023181;28;20041;-63
2021/08/01 09:12:56;;;;;;;0.95;0.85;;;25.30;53.30;;;;;;5012312;28;20025;-61
2021/08/01 09:15:24;;;;;;;0.80;0.80;;;25.30;53.30;;;;;;5014778;28;20112;-64
2021/08/01 09:17:53;;;;;;;1.10;0.80;;;25.20;53.30;;;;;;5010569;28;20025;-63
2021/08/01 09:20:19;;;;;;;0.90;0.75;;;25.20;53.30;;;;;;5017277;28;20136;-64
2021/08/01 09:23:06;;;;;;;1.60;0.90;;;25.30;53.30;;;;;;5009925;28;20128;-63
2021/08/01 09:25:34;;;;;;;1.20;1.00;;;25.30;53.30;;;;;;5020158;28;20029;-63
2021/08/01 09:28:15;;;;;;;1.08;0.80;;;25.30;53.30;;;;;;5012693;28;20702;-66
2021/08/01 09:30:58;;;;;;;1.08;0.80;;;25.20;53.30;;;;;;5011920;28;20037;-63
2021/08/01 09:33:34;;;;;;;1.15;0.70;;;25.30;53.30;;;;;;5014874;28;20036;-63
2021/08/01 09:36:13;;;;;;;0.75;0.68;;;25.30;53.40;;;;;;5019396;28;20033;-64
2021/08/01 09:38:44;;;;;;;1.17;0.80;;;25.20;53.30;;;;;;5012981;28;20099;-61
2021/08/01 09:41:10;;;;;;;0.82;0.70;;;25.20;53.30;;;;;;5019526;28;20045;-62
2021/08/01 09:43:56;;;;;;;1.23;0.90;;;25.20;53.30;;;;;;5011981;28;20163;-63
2021/08/01 09:46:36;;;;;;;0.93;0.80;;;25.20;53.30;;;;;;5012299;28;20041;-64
2021/08/01 09:49:19;;;;;;;1.63;0.90;;;25.30;53.90;;;;;;5012760;28;20141;-61
2021/08/01 09:51:56;;;;;;;0.70;0.70;;;25.30;53.30;;;;;;5015694;28;20033;-62
2021/08/01 09:54:27;;;;;;;1.38;0.80;;;25.20;53.30;;;;;;5019527;28;20061;-63
2021/08/01 09:56:53;;;;;;;0.75;0.70;;;25.20;53.30;;;;;;5018241;28;20036;-62
2021/08/01 09:59:21;;;;;;;1.08;0.80;;;25.20;53.30;;;;;;5017252;28;20034;-61
2021/08/01 10:01:58;;;;;;;1.50;1.00;;;25.20;53.30;;;;;;5012575;28;20065;-64
2021/08/01 10:04:34;;;;;;;0.77;0.70;;;25.20;53.30;;;;;;5012993;28;20029;-62
2021/08/01 10:07:11;;;;;;;1.42;0.90;;;25.30;53.40;;;;;;5017591;28;20029;-63
2021/08/01 10:09:42;;;;;;;1.60;0.85;;;25.20;53.30;;;;;;5034056;28;20072;-61
2021/08/01 10:12:08;;;;;;;1.08;0.80;;;25.30;53.30;;;;;;5016148;28;20034;-63
2021/08/01 10:14:35;;;;;;;1.23;0.88;;;25.20;53.30;;;;;;5014377;28;20042;-62
2021/08/01 10:17:01;;;;;;;1.13;0.80;;;25.20;53.30;;;;;;5023612;28;20029;-64
2021/08/01 10:19:27;;;;;;;1.90;0.90;;;25.20;53.30;;;;;;5009017;28;20033;-61
2021/08/01 10:21:57;;;;;;;0.93;0.80;;;25.20;53.30;;;;;;5017223;28;20034;-63
2021/08/01 10:24:30;;;;;;;1.20;0.80;;;25.20;53.30;;;;;;5012739;28;20083;-61
2021/08/01 10:27:03;;;;;;;1.00;0.77;;;25.20;53.40;;;;;;5021497;28;20067;-62
2021/08/01 10:29:37;;;;;;;1.10;0.90;;;25.20;53.40;;;;;;5006919;28;20025;-60
2021/08/01 10:32:07;;;;;;;1.25;0.80;;;25.20;53.40;;;;;;5012398;28;20034;-62
2021/08/01 10:34:51;;;;;;;0.85;0.73;;;25.20;53.40;;;;;;5024418;28;20155;-61
2021/08/01 10:37:31;;;;;;;0.93;0.80;;;25.20;53.30;;;;;;5023497;28;20069;-60
2021/08/01 10:40:01;;;;;;;1.58;0.90;;;25.20;53.40;;;;;;5024643;28;20091;-61
2021/08/01 10:42:28;;;;;;;0.98;0.80;;;25.20;53.40;;;;;;5019706;28;20044;-61
2021/08/01 10:44:54;;;;;;;1.10;1.00;;;25.20;53.40;;;;;;5021804;28;20033;-61
2021/08/01 10:47:20;;;;;;;1.00;0.80;;;25.20;53.40;;;;;;5025003;28;20455;-61
2021/08/01 10:49:48;;;;;;;1.25;0.90;;;25.20;53.40;;;;;;5025979;28;20393;-60
2021/08/01 10:52:18;;;;;;;1.27;0.80;;;25.20;53.40;;;;;;5017119;28;20033;-63
2021/08/01 10:54:53;;;;;;;1.17;0.80;;;25.20;53.40;;;;;;5017991;28;20029;-61
2021/08/01 10:57:21;;;;;;;1.58;1.00;;;25.20;53.40;;;;;;5021703;28;20369;-64
2021/08/01 10:59:47;;;;;;;0.80;0.80;;;25.20;53.40;;;;;;5014838;28;20469;-63
2021/08/01 11:02:17;;;;;;;1.00;0.90;;;25.20;53.40;;;;;;5019442;28;20068;-62
2021/08/01 11:04:45;;;;;;;1.08;0.80;;;25.20;53.40;;;;;;5019133;28;20777;-63
2021/08/01 11:07:11;;;;;;;1.25;1.00;;;25.20;53.40;;;;;;5026679;28;20032;-61
2021/08/01 11:09:37;;;;;;;1.05;0.90;;;25.20;53.40;;;;;;5018439;28;20038;-60
2021/08/01 11:12:36;;;;;;;1.23;0.90;;;25.20;53.30;;;;;;5016224;28;20511;-61
2021/08/01 11:15:07;;;;;;;1.75;1.00;;;25.20;53.40;;;;;;5016177;28;20040;-63
2021/08/01 11:17:51;;;;;;;1.02;0.90;;;25.20;53.40;;;;;;5025760;28;20042;-61
2021/08/01 11:20:18;;;;;;;0.75;0.75;;;25.20;53.40;;;;;;5019687;28;20079;-60
2021/08/01 11:22:44;;;;;;;1.02;0.73;;;25.20;53.40;;;;;;5021836;28;20036;-67
2021/08/01 11:25:27;;;;;;;1.30;0.90;;;25.20;53.30;;;;;;5022873;28;20752;-63
2021/08/01 11:28:08;;;;;;;1.63;0.90;;;25.20;53.40;;;;;;5023443;28;20053;-66
2021/08/01 11:30:54;;;;;;;1.60;0.90;;;25.20;53.40;;;;;;5014118;28;20094;-61
2021/08/01 11:33:40;;;;;;;1.23;0.90;;;25.20;53.40;;;;;;5016683;28;20123;-61
2021/08/01 11:36:12;;;;;;;1.55;1.10;;;25.20;53.40;;;;;;5023134;28;20032;-61
2021/08/01 11:38:52;;;;;;;1.63;1.10;;;25.20;53.30;;;;;;5028049;28;20485;-62
2021/08/01 11:41:27;;;;;;;2.10;1.30;;;25.20;53.10;;;;;;5026084;28;20088;-61
2021/08/01 11:44:00;;;;;;;2.42;1.33;;;25.20;52.80;;;;;;5022075;28;20029;-65
2021/08/01 11:46:27;;;;;;;2.72;1.63;;;25.20;52.60;;;;;;5021603;28;20031;-62
2021/08/01 11:49:00;;;;;;;2.15;1.40;;;25.10;52.40;;;;;;5015934;28;20034;-61
2021/08/01 11:51:27;;;;;;;2.25;1.40;;;25.20;52.30;;;;;;5022090;28;20057;-62
2021/08/01 11:53:53;;;;;;;3.53;1.50;;;25.20;52.20;;;;;;5022521;28;20025;-63
2021/08/01 11:56:19;;;;;;;2.13;1.40;;;25.20;52.20;;;;;;5020818;28;20397;-62
2021/08/01 11:58:54;;;;;;;2.03;1.33;;;25.20;52.10;;;;;;5024429;28;20033;-64
2021/08/01 12:01:23;;;;;;;2.33;1.20;;;25.20;52.00;;;;;;5023160;28;20042;-62
2021/08/01 12:03:49;;;;;;;1.85;1.13;;;25.10;51.90;;;;;;5015566;28;20108;-62
2021/08/01 12:06:33;;;;;;;2.45;1.30;;;25.10;51.80;;;;;;5017125;28;20033;-64
2021/08/01 12:08:59;;;;;;;2.22;1.27;;;25.10;51.60;;;;;;5024714;28;20029;-62
2021/08/01 12:11:24;;;;;;;1.58;1.10;;;25.10;51.70;;;;;;5022013;28;20026;-66
2021/08/01 12:14:23;;;;;;;1.85;1.10;;;25.10;51.60;;;;;;5016371;28;20036;-60
2021/08/01 12:16:53;;;;;;;1.50;1.10;;;25.10;51.60;;;;;;5004576;28;20033;-63
2021/08/01 12:19:19;;;;;;;;;;;25.10;51.60;;;;;;5018129;28;20599;-62
2021/08/01 12:21:46;;;;;;;2.15;1.00;;;25.10;51.50;;;;;;5020890;28;19917;-65
2021/08/01 12:24:38;;;;;;;1.40;1.10;;;25.20;51.60;;;;;;5024500;28;20126;-67
2021/08/01 12:27:10;;;;;;;2.92;1.30;;;25.10;51.50;;;;;;5020735;28;20069;-66
2021/08/01 12:30:07;;;;;;;3.30;1.30;;;25.10;51.40;;;;;;5014367;28;20033;-63
2021/08/01 12:32:33;;;;;;;1.70;1.20;;;25.10;51.40;;;;;;5011970;28;20045;-63
2021/08/01 12:35:13;;;;;;;2.13;1.20;;;25.10;51.40;;;;;;5016494;28;20786;-62
2021/08/01 12:37:41;;;;;;;2.40;1.40;;;25.10;51.40;;;;;;5018666;28;20064;-64
2021/08/01 12:40:08;;;;;;;2.72;1.20;;;25.10;51.50;;;;;;5007862;28;20472;-64
2021/08/01 12:42:33;;;;;;;2.05;1.08;;;25.10;51.50;;;;;;5016319;28;20080;-63
2021/08/01 12:45:03;;;;;;;1.80;1.10;;;25.10;51.60;;;;;;5014892;28;20105;-61
2021/08/01 12:47:29;;;;;;;;;;;25.10;51.60;;;;;;5018947;28;20029;-61
2021/08/01 12:49:56;;;;;;;2.13;1.13;;;25.10;51.60;;;;;;5023388;28;19920;-63
2021/08/01 12:52:25;;;;;;;1.63;1.10;;;25.10;51.70;;;;;;5009792;28;20034;-61
2021/08/01 12:54:52;;;;;;;;;;;25.10;51.70;;;;;;5015794;28;20416;-63